sensor_id;sensor_type;location;lat;lon;timestamp;temperature;humidity
15834;DHT22;8017;50.812;4.934;2023-03-24T00:01:48;12.50;99.90
15834;DHT22;8017;50.812;4.934;2023-03-24T00:04:50;12.60;99.90
15834;DHT22;8017;50.812;4.934;2023-03-24T00:07:54;12.50;99.90
15834;DHT22;8017;50.812;4.934;2023-03-24T00:11:00;12.60;99.90
15834;DHT22;8017;50.812;4.934;2023-03-24T00:14:03;12.60;99.90
15834;DHT22;8017;50.812;4.934;2023-03-24T00:17:06;12.60;99.90
15834;DHT22;8017;50.812;4.934;2023-03-24T00:20:12;12.60;99.90
15834;DHT22;8017;50.812;4.934;2023-03-24T00:23:17;12.70;99.90
15834;DHT22;8017;50.812;4.934;2023-03-24T00:26:19;12.70;99.90
15834;DHT22;8017;50.812;4.934;2023-03-24T00:29:22;12.60;99.90
15834;DHT22;8017;50.812;4.934;2023-03-24T00:32:24;12.70;99.90
15834;DHT22;8017;50.812;4.934;2023-03-24T00:35:27;12.70;99.90
15834;DHT22;8017;50.812;4.934;2023-03-24T00:38:31;12.60;99.90
15834;DHT22;8017;50.812;4.934;2023-03-24T00:41:33;12.60;99.90
15834;DHT22;8017;50.812;4.934;2023-03-24T00:44:36;12.70;99.90
15834;DHT22;8017;50.812;4.934;2023-03-24T00:47:38;12.60;99.90
15834;DHT22;8017;50.812;4.934;2023-03-24T00:50:44;12.60;99.90
15834;DHT22;8017;50.812;4.934;2023-03-24T00:53:47;12.60;99.90
15834;DHT22;8017;50.812;4.934;2023-03-24T00:56:49;12.70;99.90
15834;DHT22;8017;50.812;4.934;2023-03-24T00:59:55;12.70;99.90
15834;DHT22;8017;50.812;4.934;2023-03-24T01:02:58;12.80;99.90
15834;DHT22;8017;50.812;4.934;2023-03-24T01:06:03;12.80;99.90
15834;DHT22;8017;50.812;4.934;2023-03-24T01:09:06;12.80;99.90
15834;DHT22;8017;50.812;4.934;2023-03-24T01:12:10;12.80;99.90
15834;DHT22;8017;50.812;4.934;2023-03-24T01:15:14;12.80;99.90
15834;DHT22;8017;50.812;4.934;2023-03-24T01:18:16;12.90;99.90
15834;DHT22;8017;50.812;4.934;2023-03-24T01:21:18;12.90;99.90
15834;DHT22;8017;50.812;4.934;2023-03-24T01:24:22;13.00;99.90
15834;DHT22;8017;50.812;4.934;2023-03-24T01:27:25;12.90;99.90
15834;DHT22;8017;50.812;4.934;2023-03-24T01:30:28;13.00;99.90
15834;DHT22;8017;50.812;4.934;2023-03-24T01:33:30;13.00;99.90
15834;DHT22;8017;50.812;4.934;2023-03-24T01:36:32;12.90;99.90
15834;DHT22;8017;50.812;4.934;2023-03-24T01:39:36;13.00;99.90
15834;DHT22;8017;50.812;4.934;2023-03-24T01:42:39;13.00;99.90
15834;DHT22;8017;50.812;4.934;2023-03-24T01:46:05;13.00;99.90
15834;DHT22;8017;50.812;4.934;2023-03-24T01:49:07;13.00;99.90
15834;DHT22;8017;50.812;4.934;2023-03-24T01:52:14;13.00;99.90
15834;DHT22;8017;50.812;4.934;2023-03-24T01:55:19;13.10;99.90
15834;DHT22;8017;50.812;4.934;2023-03-24T01:58:22;13.10;99.90
15834;DHT22;8017;50.812;4.934;2023-03-24T02:01:25;13.20;99.90
15834;DHT22;8017;50.812;4.934;2023-03-24T02:04:30;13.30;99.90
15834;DHT22;8017;50.812;4.934;2023-03-24T02:07:39;13.30;99.90
15834;DHT22;8017;50.812;4.934;2023-03-24T02:10:44;13.30;99.90
15834;DHT22;8017;50.812;4.934;2023-03-24T02:13:46;13.30;99.90
15834;DHT22;8017;50.812;4.934;2023-03-24T02:17:01;13.30;99.90
15834;DHT22;8017;50.812;4.934;2023-03-24T02:24:42;13.30;99.90
15834;DHT22;8017;50.812;4.934;2023-03-24T02:28:08;13.20;99.90
15834;DHT22;8017;50.812;4.934;2023-03-24T02:31:26;13.10;99.90
15834;DHT22;8017;50.812;4.934;2023-03-24T02:34:55;13.10;99.90
15834;DHT22;8017;50.812;4.934;2023-03-24T02:38:42;13.00;99.90
15834;DHT22;8017;50.812;4.934;2023-03-24T02:41:53;12.90;99.90
15834;DHT22;8017;50.812;4.934;2023-03-24T02:45:09;12.90;99.90
15834;DHT22;8017;50.812;4.934;2023-03-24T02:48:26;12.80;99.90
15834;DHT22;8017;50.812;4.934;2023-03-24T02:51:37;12.70;99.90
15834;DHT22;8017;50.812;4.934;2023-03-24T02:54:45;12.70;99.90
15834;DHT22;8017;50.812;4.934;2023-03-24T02:57:53;12.60;99.90
15834;DHT22;8017;50.812;4.934;2023-03-24T03:01:00;12.60;99.90
15834;DHT22;8017;50.812;4.934;2023-03-24T03:04:07;12.50;99.90
15834;DHT22;8017;50.812;4.934;2023-03-24T03:07:10;12.50;99.90
15834;DHT22;8017;50.812;4.934;2023-03-24T03:10:19;12.50;99.90
15834;DHT22;8017;50.812;4.934;2023-03-24T03:13:29;12.50;99.90
15834;DHT22;8017;50.812;4.934;2023-03-24T03:16:35;12.40;99.90
15834;DHT22;8017;50.812;4.934;2023-03-24T03:19:41;12.30;99.90
15834;DHT22;8017;50.812;4.934;2023-03-24T03:22:49;12.20;99.90
15834;DHT22;8017;50.812;4.934;2023-03-24T03:25:55;12.10;99.90
15834;DHT22;8017;50.812;4.934;2023-03-24T03:29:08;11.90;99.90
15834;DHT22;8017;50.812;4.934;2023-03-24T03:32:19;11.70;99.90
15834;DHT22;8017;50.812;4.934;2023-03-24T03:35:29;11.60;99.90
15834;DHT22;8017;50.812;4.934;2023-03-24T03:38:40;11.60;99.90
15834;DHT22;8017;50.812;4.934;2023-03-24T03:41:46;11.40;99.90
15834;DHT22;8017;50.812;4.934;2023-03-24T03:44:49;11.30;99.90
15834;DHT22;8017;50.812;4.934;2023-03-24T03:47:52;11.20;99.90
15834;DHT22;8017;50.812;4.934;2023-03-24T03:50:55;11.00;99.90
15834;DHT22;8017;50.812;4.934;2023-03-24T03:53:58;10.90;99.90
15834;DHT22;8017;50.812;4.934;2023-03-24T03:57:02;10.80;99.90
15834;DHT22;8017;50.812;4.934;2023-03-24T04:00:07;10.70;99.90
15834;DHT22;8017;50.812;4.934;2023-03-24T04:03:39;10.70;99.90
15834;DHT22;8017;50.812;4.934;2023-03-24T04:06:54;10.60;99.90
15834;DHT22;8017;50.812;4.934;2023-03-24T04:10:08;10.40;99.90
15834;DHT22;8017;50.812;4.934;2023-03-24T04:13:18;10.40;99.90
15834;DHT22;8017;50.812;4.934;2023-03-24T04:16:34;10.30;99.90
15834;DHT22;8017;50.812;4.934;2023-03-24T04:19:48;10.30;99.90
15834;DHT22;8017;50.812;4.934;2023-03-24T04:23:04;10.20;99.90
15834;DHT22;8017;50.812;4.934;2023-03-24T04:26:15;10.10;99.90
15834;DHT22;8017;50.812;4.934;2023-03-24T04:29:32;10.00;99.90
15834;DHT22;8017;50.812;4.934;2023-03-24T04:32:40;10.00;99.90
15834;DHT22;8017;50.812;4.934;2023-03-24T04:35:50;10.00;99.90
15834;DHT22;8017;50.812;4.934;2023-03-24T04:38:55;10.00;99.90
15834;DHT22;8017;50.812;4.934;2023-03-24T04:41:59;10.10;99.90
15834;DHT22;8017;50.812;4.934;2023-03-24T04:45:03;10.10;99.90
15834;DHT22;8017;50.812;4.934;2023-03-24T04:48:09;10.20;99.90
15834;DHT22;8017;50.812;4.934;2023-03-24T04:51:11;10.20;99.90
15834;DHT22;8017;50.812;4.934;2023-03-24T04:54:13;10.20;99.90
15834;DHT22;8017;50.812;4.934;2023-03-24T04:57:15;10.10;99.90
15834;DHT22;8017;50.812;4.934;2023-03-24T05:00:17;10.10;99.90
15834;DHT22;8017;50.812;4.934;2023-03-24T05:03:20;10.10;99.90
15834;DHT22;8017;50.812;4.934;2023-03-24T05:06:23;10.10;99.90
15834;DHT22;8017;50.812;4.934;2023-03-24T05:09:24;10.00;99.90
15834;DHT22;8017;50.812;4.934;2023-03-24T05:12:27;10.10;99.90
15834;DHT22;8017;50.812;4.934;2023-03-24T05:15:29;10.10;99.90
15834;DHT22;8017;50.812;4.934;2023-03-24T05:18:32;10.20;99.90
15834;DHT22;8017;50.812;4.934;2023-03-24T05:21:34;10.20;99.90
15834;DHT22;8017;50.812;4.934;2023-03-24T05:24:36;10.20;99.90
15834;DHT22;8017;50.812;4.934;2023-03-24T05:27:40;10.20;99.90
15834;DHT22;8017;50.812;4.934;2023-03-24T05:30:42;10.20;99.90
15834;DHT22;8017;50.812;4.934;2023-03-24T05:33:45;10.20;99.90
15834;DHT22;8017;50.812;4.934;2023-03-24T05:36:48;10.10;99.90
15834;DHT22;8017;50.812;4.934;2023-03-24T05:39:49;10.00;99.90
15834;DHT22;8017;50.812;4.934;2023-03-24T05:42:51;9.90;99.90
15834;DHT22;8017;50.812;4.934;2023-03-24T05:45:53;9.80;99.90
15834;DHT22;8017;50.812;4.934;2023-03-24T05:48:58;9.70;99.90
15834;DHT22;8017;50.812;4.934;2023-03-24T05:52:00;9.70;99.90
15834;DHT22;8017;50.812;4.934;2023-03-24T05:55:02;9.60;99.90
15834;DHT22;8017;50.812;4.934;2023-03-24T05:58:04;9.60;99.90
15834;DHT22;8017;50.812;4.934;2023-03-24T06:01:07;9.60;99.90
15834;DHT22;8017;50.812;4.934;2023-03-24T06:04:12;9.60;99.90
15834;DHT22;8017;50.812;4.934;2023-03-24T06:07:14;9.60;99.90
15834;DHT22;8017;50.812;4.934;2023-03-24T06:10:16;9.60;99.90
15834;DHT22;8017;50.812;4.934;2023-03-24T06:13:18;9.70;99.90
15834;DHT22;8017;50.812;4.934;2023-03-24T06:16:20;9.80;99.90
15834;DHT22;8017;50.812;4.934;2023-03-24T06:19:25;9.80;99.90
15834;DHT22;8017;50.812;4.934;2023-03-24T06:22:30;9.70;99.90
15834;DHT22;8017;50.812;4.934;2023-03-24T06:25:34;9.70;99.90
15834;DHT22;8017;50.812;4.934;2023-03-24T06:28:36;9.60;99.90
15834;DHT22;8017;50.812;4.934;2023-03-24T06:31:39;9.60;99.90
15834;DHT22;8017;50.812;4.934;2023-03-24T06:34:42;9.60;99.90
15834;DHT22;8017;50.812;4.934;2023-03-24T06:37:44;9.60;99.90
15834;DHT22;8017;50.812;4.934;2023-03-24T06:40:46;9.60;99.90
15834;DHT22;8017;50.812;4.934;2023-03-24T06:43:48;9.60;99.90
15834;DHT22;8017;50.812;4.934;2023-03-24T06:46:50;9.60;99.90
15834;DHT22;8017;50.812;4.934;2023-03-24T06:49:53;9.70;99.90
15834;DHT22;8017;50.812;4.934;2023-03-24T06:52:55;9.80;99.90
15834;DHT22;8017;50.812;4.934;2023-03-24T06:55:57;9.80;99.90
15834;DHT22;8017;50.812;4.934;2023-03-24T06:58:59;9.80;99.90
15834;DHT22;8017;50.812;4.934;2023-03-24T07:02:01;9.80;99.90
15834;DHT22;8017;50.812;4.934;2023-03-24T07:05:05;9.90;99.90
15834;DHT22;8017;50.812;4.934;2023-03-24T07:08:08;10.10;99.90
15834;DHT22;8017;50.812;4.934;2023-03-24T07:11:11;10.30;99.90
15834;DHT22;8017;50.812;4.934;2023-03-24T07:14:14;10.40;99.90
15834;DHT22;8017;50.812;4.934;2023-03-24T07:17:16;10.40;99.90
15834;DHT22;8017;50.812;4.934;2023-03-24T07:20:19;10.30;99.90
15834;DHT22;8017;50.812;4.934;2023-03-24T07:23:22;10.20;99.90
15834;DHT22;8017;50.812;4.934;2023-03-24T07:26:24;10.20;99.90
15834;DHT22;8017;50.812;4.934;2023-03-24T07:29:27;10.20;99.90
15834;DHT22;8017;50.812;4.934;2023-03-24T07:32:29;10.20;99.90
15834;DHT22;8017;50.812;4.934;2023-03-24T07:35:36;10.30;99.90
15834;DHT22;8017;50.812;4.934;2023-03-24T07:38:38;10.40;99.90
15834;DHT22;8017;50.812;4.934;2023-03-24T07:41:40;10.60;99.90
15834;DHT22;8017;50.812;4.934;2023-03-24T07:44:42;10.80;99.90
15834;DHT22;8017;50.812;4.934;2023-03-24T07:47:45;11.10;99.90
15834;DHT22;8017;50.812;4.934;2023-03-24T07:50:48;11.30;99.90
15834;DHT22;8017;50.812;4.934;2023-03-24T07:53:50;11.30;99.90
15834;DHT22;8017;50.812;4.934;2023-03-24T07:56:52;11.30;99.90
15834;DHT22;8017;50.812;4.934;2023-03-24T07:59:54;11.30;99.90
15834;DHT22;8017;50.812;4.934;2023-03-24T08:02:56;11.40;99.90
15834;DHT22;8017;50.812;4.934;2023-03-24T08:06:02;11.50;99.90
15834;DHT22;8017;50.812;4.934;2023-03-24T08:09:04;11.80;99.90
15834;DHT22;8017;50.812;4.934;2023-03-24T08:12:06;12.20;99.90
15834;DHT22;8017;50.812;4.934;2023-03-24T08:15:08;12.40;99.90
15834;DHT22;8017;50.812;4.934;2023-03-24T08:18:10;12.50;99.90
15834;DHT22;8017;50.812;4.934;2023-03-24T08:21:13;12.50;99.90
15834;DHT22;8017;50.812;4.934;2023-03-24T08:24:16;12.50;99.90
15834;DHT22;8017;50.812;4.934;2023-03-24T08:27:19;12.50;99.90
15834;DHT22;8017;50.812;4.934;2023-03-24T08:30:22;12.50;99.90
15834;DHT22;8017;50.812;4.934;2023-03-24T08:33:25;12.40;99.90
15834;DHT22;8017;50.812;4.934;2023-03-24T08:36:28;12.40;99.90
15834;DHT22;8017;50.812;4.934;2023-03-24T08:39:31;12.40;99.90
15834;DHT22;8017;50.812;4.934;2023-03-24T08:42:35;12.20;99.90
15834;DHT22;8017;50.812;4.934;2023-03-24T08:45:37;12.10;99.90
15834;DHT22;8017;50.812;4.934;2023-03-24T08:48:39;12.00;99.90
15834;DHT22;8017;50.812;4.934;2023-03-24T08:51:44;12.00;99.90
15834;DHT22;8017;50.812;4.934;2023-03-24T08:54:46;11.90;99.90
15834;DHT22;8017;50.812;4.934;2023-03-24T08:57:48;11.90;99.90
15834;DHT22;8017;50.812;4.934;2023-03-24T09:00:51;12.00;99.90
15834;DHT22;8017;50.812;4.934;2023-03-24T09:03:53;12.20;99.90
15834;DHT22;8017;50.812;4.934;2023-03-24T09:06:56;12.50;99.90
15834;DHT22;8017;50.812;4.934;2023-03-24T09:10:00;12.50;99.90
15834;DHT22;8017;50.812;4.934;2023-03-24T09:13:02;12.80;99.90
15834;DHT22;8017;50.812;4.934;2023-03-24T09:16:05;13.00;99.90
15834;DHT22;8017;50.812;4.934;2023-03-24T09:19:06;13.50;99.90
15834;DHT22;8017;50.812;4.934;2023-03-24T09:22:10;13.60;99.90
15834;DHT22;8017;50.812;4.934;2023-03-24T09:25:13;13.60;99.90
15834;DHT22;8017;50.812;4.934;2023-03-24T09:28:16;13.40;99.90
15834;DHT22;8017;50.812;4.934;2023-03-24T09:31:18;13.50;99.90
15834;DHT22;8017;50.812;4.934;2023-03-24T09:34:20;13.30;99.90
15834;DHT22;8017;50.812;4.934;2023-03-24T09:37:27;13.00;99.90
15834;DHT22;8017;50.812;4.934;2023-03-24T09:40:31;13.00;99.90
15834;DHT22;8017;50.812;4.934;2023-03-24T09:43:37;13.20;99.90
15834;DHT22;8017;50.812;4.934;2023-03-24T09:46:43;13.40;99.90
15834;DHT22;8017;50.812;4.934;2023-03-24T09:49:47;13.50;99.90
15834;DHT22;8017;50.812;4.934;2023-03-24T09:52:53;13.90;99.90
15834;DHT22;8017;50.812;4.934;2023-03-24T09:56:02;13.80;99.90
15834;DHT22;8017;50.812;4.934;2023-03-24T09:59:10;13.80;99.90
15834;DHT22;8017;50.812;4.934;2023-03-24T10:02:15;13.90;99.90
15834;DHT22;8017;50.812;4.934;2023-03-24T10:05:21;13.80;99.90
15834;DHT22;8017;50.812;4.934;2023-03-24T10:08:32;13.80;99.90
15834;DHT22;8017;50.812;4.934;2023-03-24T10:11:42;13.90;99.90
15834;DHT22;8017;50.812;4.934;2023-03-24T10:14:54;14.20;99.90
15834;DHT22;8017;50.812;4.934;2023-03-24T10:18:01;14.30;99.90
15834;DHT22;8017;50.812;4.934;2023-03-24T10:21:13;14.70;99.90
15834;DHT22;8017;50.812;4.934;2023-03-24T10:24:22;14.90;99.90
15834;DHT22;8017;50.812;4.934;2023-03-24T10:27:29;14.70;99.90
15834;DHT22;8017;50.812;4.934;2023-03-24T10:30:34;14.70;99.90
15834;DHT22;8017;50.812;4.934;2023-03-24T10:33:40;14.50;99.90
15834;DHT22;8017;50.812;4.934;2023-03-24T10:36:44;14.60;99.90
15834;DHT22;8017;50.812;4.934;2023-03-24T10:39:47;14.50;99.90
15834;DHT22;8017;50.812;4.934;2023-03-24T10:42:49;14.70;99.90
15834;DHT22;8017;50.812;4.934;2023-03-24T10:45:52;14.90;99.90
15834;DHT22;8017;50.812;4.934;2023-03-24T10:49:07;14.70;99.90
15834;DHT22;8017;50.812;4.934;2023-03-24T10:52:09;14.40;99.90
15834;DHT22;8017;50.812;4.934;2023-03-24T10:55:16;14.50;99.90
15834;DHT22;8017;50.812;4.934;2023-03-24T10:58:28;14.80;99.90
15834;DHT22;8017;50.812;4.934;2023-03-24T11:01:30;14.70;99.90
15834;DHT22;8017;50.812;4.934;2023-03-24T11:04:36;14.40;99.90
15834;DHT22;8017;50.812;4.934;2023-03-24T11:07:41;14.30;99.90
15834;DHT22;8017;50.812;4.934;2023-03-24T11:10:44;14.40;99.90
15834;DHT22;8017;50.812;4.934;2023-03-24T11:13:53;14.70;99.90
15834;DHT22;8017;50.812;4.934;2023-03-24T11:17:02;14.60;99.90
15834;DHT22;8017;50.812;4.934;2023-03-24T11:20:15;14.40;99.90
15834;DHT22;8017;50.812;4.934;2023-03-24T11:23:19;14.50;99.90
15834;DHT22;8017;50.812;4.934;2023-03-24T11:26:29;14.70;99.90
15834;DHT22;8017;50.812;4.934;2023-03-24T11:29:33;15.00;99.90
15834;DHT22;8017;50.812;4.934;2023-03-24T11:32:44;14.80;99.90
15834;DHT22;8017;50.812;4.934;2023-03-24T11:35:47;14.80;99.90
15834;DHT22;8017;50.812;4.934;2023-03-24T11:38:58;15.00;99.90
15834;DHT22;8017;50.812;4.934;2023-03-24T11:42:13;15.10;99.90
15834;DHT22;8017;50.812;4.934;2023-03-24T11:45:21;15.60;99.90
15834;DHT22;8017;50.812;4.934;2023-03-24T11:48:28;15.70;99.90
15834;DHT22;8017;50.812;4.934;2023-03-24T11:51:34;15.50;99.90
15834;DHT22;8017;50.812;4.934;2023-03-24T11:54:36;15.40;99.90
15834;DHT22;8017;50.812;4.934;2023-03-24T11:57:47;15.30;99.90
15834;DHT22;8017;50.812;4.934;2023-03-24T12:00:54;15.60;99.90
15834;DHT22;8017;50.812;4.934;2023-03-24T12:04:21;15.60;99.90
15834;DHT22;8017;50.812;4.934;2023-03-24T12:08:13;15.60;99.90
15834;DHT22;8017;50.812;4.934;2023-03-24T12:11:23;15.40;99.90
15834;DHT22;8017;50.812;4.934;2023-03-24T12:14:37;15.00;99.90
15834;DHT22;8017;50.812;4.934;2023-03-24T12:17:46;14.90;99.90
15834;DHT22;8017;50.812;4.934;2023-03-24T12:20:55;14.80;99.90
15834;DHT22;8017;50.812;4.934;2023-03-24T12:24:04;14.80;99.90
15834;DHT22;8017;50.812;4.934;2023-03-24T12:27:19;14.90;99.90
15834;DHT22;8017;50.812;4.934;2023-03-24T12:30:28;15.10;99.90
15834;DHT22;8017;50.812;4.934;2023-03-24T12:33:42;15.10;99.90
15834;DHT22;8017;50.812;4.934;2023-03-24T12:36:54;14.40;99.90
15834;DHT22;8017;50.812;4.934;2023-03-24T12:40:10;13.80;99.90
15834;DHT22;8017;50.812;4.934;2023-03-24T12:43:27;13.70;99.90
15834;DHT22;8017;50.812;4.934;2023-03-24T12:46:38;13.90;99.90
15834;DHT22;8017;50.812;4.934;2023-03-24T12:49:51;14.00;99.90
15834;DHT22;8017;50.812;4.934;2023-03-24T12:53:03;13.90;99.90
15834;DHT22;8017;50.812;4.934;2023-03-24T12:56:13;13.90;99.90
15834;DHT22;8017;50.812;4.934;2023-03-24T12:59:18;13.70;99.90
15834;DHT22;8017;50.812;4.934;2023-03-24T13:02:28;13.70;99.90
15834;DHT22;8017;50.812;4.934;2023-03-24T13:05:33;14.00;99.90
15834;DHT22;8017;50.812;4.934;2023-03-24T13:08:37;14.10;99.90
15834;DHT22;8017;50.812;4.934;2023-03-24T13:11:46;14.30;99.90
15834;DHT22;8017;50.812;4.934;2023-03-24T13:14:58;14.40;99.90
15834;DHT22;8017;50.812;4.934;2023-03-24T13:18:16;14.40;99.90
15834;DHT22;8017;50.812;4.934;2023-03-24T13:21:20;14.70;99.90
15834;DHT22;8017;50.812;4.934;2023-03-24T13:24:23;14.90;99.90
15834;DHT22;8017;50.812;4.934;2023-03-24T13:27:28;15.10;99.90
15834;DHT22;8017;50.812;4.934;2023-03-24T13:30:34;15.40;99.90
15834;DHT22;8017;50.812;4.934;2023-03-24T13:33:40;15.40;99.90
15834;DHT22;8017;50.812;4.934;2023-03-24T13:36:46;15.30;99.90
15834;DHT22;8017;50.812;4.934;2023-03-24T13:39:53;15.30;99.90
15834;DHT22;8017;50.812;4.934;2023-03-24T13:42:57;14.90;99.90
15834;DHT22;8017;50.812;4.934;2023-03-24T13:46:01;14.80;99.90
15834;DHT22;8017;50.812;4.934;2023-03-24T13:49:10;14.60;99.90
15834;DHT22;8017;50.812;4.934;2023-03-24T13:52:29;14.30;99.90
15834;DHT22;8017;50.812;4.934;2023-03-24T13:55:37;13.30;99.90
15834;DHT22;8017;50.812;4.934;2023-03-24T13:58:49;12.20;99.90
15834;DHT22;8017;50.812;4.934;2023-03-24T14:02:20;12.00;99.90
15834;DHT22;8017;50.812;4.934;2023-03-24T14:05:33;12.00;99.90
15834;DHT22;8017;50.812;4.934;2023-03-24T14:08:54;11.90;99.90
15834;DHT22;8017;50.812;4.934;2023-03-24T14:12:16;11.80;99.90
15834;DHT22;8017;50.812;4.934;2023-03-24T14:15:20;11.80;99.90
15834;DHT22;8017;50.812;4.934;2023-03-24T14:18:40;11.90;99.90
15834;DHT22;8017;50.812;4.934;2023-03-24T14:21:50;11.70;99.90
15834;DHT22;8017;50.812;4.934;2023-03-24T14:24:57;11.70;99.90
15834;DHT22;8017;50.812;4.934;2023-03-24T14:28:19;11.60;99.90
15834;DHT22;8017;50.812;4.934;2023-03-24T14:31:23;11.50;99.90
15834;DHT22;8017;50.812;4.934;2023-03-24T14:34:28;11.60;99.90
15834;DHT22;8017;50.812;4.934;2023-03-24T14:37:32;11.60;99.90
15834;DHT22;8017;50.812;4.934;2023-03-24T14:40:36;11.70;99.90
15834;DHT22;8017;50.812;4.934;2023-03-24T14:43:56;11.90;99.90
15834;DHT22;8017;50.812;4.934;2023-03-24T14:46:58;12.00;99.90
15834;DHT22;8017;50.812;4.934;2023-03-24T14:50:08;12.10;99.90
15834;DHT22;8017;50.812;4.934;2023-03-24T14:53:18;12.00;99.90
15834;DHT22;8017;50.812;4.934;2023-03-24T14:56:21;12.00;99.90
15834;DHT22;8017;50.812;4.934;2023-03-24T14:59:39;12.00;99.90
15834;DHT22;8017;50.812;4.934;2023-03-24T15:02:43;12.50;99.90
15834;DHT22;8017;50.812;4.934;2023-03-24T15:05:47;13.00;99.90
15834;DHT22;8017;50.812;4.934;2023-03-24T15:08:52;13.00;99.90
15834;DHT22;8017;50.812;4.934;2023-03-24T15:11:55;12.60;99.90
15834;DHT22;8017;50.812;4.934;2023-03-24T15:14:59;12.40;99.90
15834;DHT22;8017;50.812;4.934;2023-03-24T15:18:01;12.30;99.90
15834;DHT22;8017;50.812;4.934;2023-03-24T15:21:13;12.30;99.90
15834;DHT22;8017;50.812;4.934;2023-03-24T15:24:27;12.30;99.90
15834;DHT22;8017;50.812;4.934;2023-03-24T15:27:29;12.40;99.90
15834;DHT22;8017;50.812;4.934;2023-03-24T15:30:33;12.40;99.90
15834;DHT22;8017;50.812;4.934;2023-03-24T15:33:38;12.40;99.90
15834;DHT22;8017;50.812;4.934;2023-03-24T15:36:41;12.60;99.90
15834;DHT22;8017;50.812;4.934;2023-03-24T15:39:48;12.70;99.90
15834;DHT22;8017;50.812;4.934;2023-03-24T15:42:53;12.70;99.90
15834;DHT22;8017;50.812;4.934;2023-03-24T15:45:57;12.70;99.90
15834;DHT22;8017;50.812;4.934;2023-03-24T15:49:02;12.80;99.90
15834;DHT22;8017;50.812;4.934;2023-03-24T15:52:24;12.80;99.90
15834;DHT22;8017;50.812;4.934;2023-03-24T15:55:30;12.90;99.90
15834;DHT22;8017;50.812;4.934;2023-03-24T15:58:48;12.90;99.90
15834;DHT22;8017;50.812;4.934;2023-03-24T16:01:51;12.90;99.90
15834;DHT22;8017;50.812;4.934;2023-03-24T16:04:56;13.00;99.90
15834;DHT22;8017;50.812;4.934;2023-03-24T16:08:03;13.10;99.90
15834;DHT22;8017;50.812;4.934;2023-03-24T16:11:08;13.10;99.90
15834;DHT22;8017;50.812;4.934;2023-03-24T16:14:19;13.20;99.90
15834;DHT22;8017;50.812;4.934;2023-03-24T16:17:22;13.30;99.90
15834;DHT22;8017;50.812;4.934;2023-03-24T16:20:24;13.30;99.90
15834;DHT22;8017;50.812;4.934;2023-03-24T16:23:26;13.30;99.90
15834;DHT22;8017;50.812;4.934;2023-03-24T16:26:31;13.10;99.90
15834;DHT22;8017;50.812;4.934;2023-03-24T16:29:33;13.10;99.90
15834;DHT22;8017;50.812;4.934;2023-03-24T16:32:36;13.10;99.90
15834;DHT22;8017;50.812;4.934;2023-03-24T16:35:38;12.90;99.90
15834;DHT22;8017;50.812;4.934;2023-03-24T16:38:40;12.70;99.90
15834;DHT22;8017;50.812;4.934;2023-03-24T16:41:44;12.60;99.90
15834;DHT22;8017;50.812;4.934;2023-03-24T16:44:46;12.60;99.90
15834;DHT22;8017;50.812;4.934;2023-03-24T16:47:48;12.60;99.90
15834;DHT22;8017;50.812;4.934;2023-03-24T16:50:51;12.60;99.90
15834;DHT22;8017;50.812;4.934;2023-03-24T16:53:54;12.70;99.90
15834;DHT22;8017;50.812;4.934;2023-03-24T16:56:57;12.70;99.90
15834;DHT22;8017;50.812;4.934;2023-03-24T17:00:00;12.70;99.90
15834;DHT22;8017;50.812;4.934;2023-03-24T17:03:10;12.60;99.90
15834;DHT22;8017;50.812;4.934;2023-03-24T17:06:13;12.60;99.90
15834;DHT22;8017;50.812;4.934;2023-03-24T17:09:16;12.50;99.90
15834;DHT22;8017;50.812;4.934;2023-03-24T17:12:19;12.40;99.90
15834;DHT22;8017;50.812;4.934;2023-03-24T17:15:23;12.40;99.90
15834;DHT22;8017;50.812;4.934;2023-03-24T17:18:25;12.40;99.90
15834;DHT22;8017;50.812;4.934;2023-03-24T17:21:27;12.40;99.90
15834;DHT22;8017;50.812;4.934;2023-03-24T17:24:32;12.40;99.90
15834;DHT22;8017;50.812;4.934;2023-03-24T17:27:36;12.30;99.90
15834;DHT22;8017;50.812;4.934;2023-03-24T17:30:38;12.30;99.90
15834;DHT22;8017;50.812;4.934;2023-03-24T17:33:40;12.30;99.90
15834;DHT22;8017;50.812;4.934;2023-03-24T17:36:42;12.30;99.90
15834;DHT22;8017;50.812;4.934;2023-03-24T17:39:44;12.30;99.90
15834;DHT22;8017;50.812;4.934;2023-03-24T17:42:48;12.30;99.90
15834;DHT22;8017;50.812;4.934;2023-03-24T17:45:50;12.20;99.90
15834;DHT22;8017;50.812;4.934;2023-03-24T17:48:52;12.20;99.90
15834;DHT22;8017;50.812;4.934;2023-03-24T17:51:54;11.40;99.90
15834;DHT22;8017;50.812;4.934;2023-03-24T17:54:55;10.70;99.90
15834;DHT22;8017;50.812;4.934;2023-03-24T17:57:59;10.30;99.90
15834;DHT22;8017;50.812;4.934;2023-03-24T18:01:02;10.00;99.90
15834;DHT22;8017;50.812;4.934;2023-03-24T18:04:06;9.80;99.90
15834;DHT22;8017;50.812;4.934;2023-03-24T18:07:08;9.70;99.90
15834;DHT22;8017;50.812;4.934;2023-03-24T18:10:10;9.70;99.90
15834;DHT22;8017;50.812;4.934;2023-03-24T18:13:14;9.70;99.90
15834;DHT22;8017;50.812;4.934;2023-03-24T18:16:16;9.80;99.90
15834;DHT22;8017;50.812;4.934;2023-03-24T18:19:19;9.70;99.90
15834;DHT22;8017;50.812;4.934;2023-03-24T18:22:21;9.70;99.90
15834;DHT22;8017;50.812;4.934;2023-03-24T18:25:23;9.70;99.90
15834;DHT22;8017;50.812;4.934;2023-03-24T18:28:26;9.60;99.90
15834;DHT22;8017;50.812;4.934;2023-03-24T18:31:29;9.60;99.90
15834;DHT22;8017;50.812;4.934;2023-03-24T18:34:32;9.40;99.90
15834;DHT22;8017;50.812;4.934;2023-03-24T18:37:35;9.30;99.90
15834;DHT22;8017;50.812;4.934;2023-03-24T18:40:37;9.20;99.90
15834;DHT22;8017;50.812;4.934;2023-03-24T18:43:41;9.20;99.90
15834;DHT22;8017;50.812;4.934;2023-03-24T18:46:46;9.10;99.90
15834;DHT22;8017;50.812;4.934;2023-03-24T18:49:50;9.10;99.90
15834;DHT22;8017;50.812;4.934;2023-03-24T18:52:51;9.20;99.90
15834;DHT22;8017;50.812;4.934;2023-03-24T18:55:53;9.20;99.90
15834;DHT22;8017;50.812;4.934;2023-03-24T18:58:57;9.30;99.90
15834;DHT22;8017;50.812;4.934;2023-03-24T19:01:59;9.30;99.90
15834;DHT22;8017;50.812;4.934;2023-03-24T19:05:01;9.20;99.90
15834;DHT22;8017;50.812;4.934;2023-03-24T19:08:03;9.20;99.90
15834;DHT22;8017;50.812;4.934;2023-03-24T19:11:07;9.20;99.90
15834;DHT22;8017;50.812;4.934;2023-03-24T19:14:10;9.20;99.90
15834;DHT22;8017;50.812;4.934;2023-03-24T19:17:12;9.20;99.90
15834;DHT22;8017;50.812;4.934;2023-03-24T19:20:14;9.10;99.90
15834;DHT22;8017;50.812;4.934;2023-03-24T19:23:16;9.10;99.90
15834;DHT22;8017;50.812;4.934;2023-03-24T19:26:18;9.20;99.90
15834;DHT22;8017;50.812;4.934;2023-03-24T19:29:22;9.20;99.90
15834;DHT22;8017;50.812;4.934;2023-03-24T19:32:24;9.20;99.90
15834;DHT22;8017;50.812;4.934;2023-03-24T19:35:26;9.20;99.90
15834;DHT22;8017;50.812;4.934;2023-03-24T19:38:28;9.20;99.90
15834;DHT22;8017;50.812;4.934;2023-03-24T19:41:30;9.20;99.90
15834;DHT22;8017;50.812;4.934;2023-03-24T19:44:33;9.20;99.90
15834;DHT22;8017;50.812;4.934;2023-03-24T19:47:35;9.20;99.90
15834;DHT22;8017;50.812;4.934;2023-03-24T19:50:37;9.20;99.90
15834;DHT22;8017;50.812;4.934;2023-03-24T19:53:39;9.20;99.90
15834;DHT22;8017;50.812;4.934;2023-03-24T19:56:41;9.10;99.90
15834;DHT22;8017;50.812;4.934;2023-03-24T19:59:44;9.10;99.90
15834;DHT22;8017;50.812;4.934;2023-03-24T20:02:46;9.10;99.90